sensor_id;sensor_type;location;lat;lon;timestamp;P1;durP1;ratioP1;P2;durP2;ratioP2
27209;SDS011;14721;42.668;23.386;2023-04-03T00:01:52;3.67;;;1.50;;
27209;SDS011;14721;42.668;23.386;2023-04-03T00:04:27;2.17;;;1.20;;
27209;SDS011;14721;42.668;23.386;2023-04-03T00:06:56;2.67;;;1.60;;
27209;SDS011;14721;42.668;23.386;2023-04-03T00:09:25;3.03;;;1.40;;
27209;SDS011;14721;42.668;23.386;2023-04-03T00:11:54;2.53;;;1.10;;
27209;SDS011;14721;42.668;23.386;2023-04-03T00:14:22;3.23;;;1.43;;
27209;SDS011;14721;42.668;23.386;2023-04-03T00:16:52;3.67;;;1.30;;
27209;SDS011;14721;42.668;23.386;2023-04-03T00:19:18;2.10;;;1.20;;
27209;SDS011;14721;42.668;23.386;2023-04-03T00:21:47;2.90;;;1.50;;
27209;SDS011;14721;42.668;23.386;2023-04-03T00:24:35;3.07;;;1.43;;
27209;SDS011;14721;42.668;23.386;2023-04-03T00:27:05;4.27;;;1.57;;
27209;SDS011;14721;42.668;23.386;2023-04-03T00:29:40;2.17;;;1.40;;
27209;SDS011;14721;42.668;23.386;2023-04-03T00:32:11;3.37;;;1.43;;
27209;SDS011;14721;42.668;23.386;2023-04-03T00:34:41;2.33;;;1.50;;
27209;SDS011;14721;42.668;23.386;2023-04-03T00:37:14;2.97;;;1.27;;
27209;SDS011;14721;42.668;23.386;2023-04-03T00:39:43;2.73;;;1.87;;
27209;SDS011;14721;42.668;23.386;2023-04-03T00:47:28;3.03;;;1.53;;
27209;SDS011;14721;42.668;23.386;2023-04-03T00:50:00;2.70;;;1.50;;
27209;SDS011;14721;42.668;23.386;2023-04-03T00:52:28;3.87;;;1.10;;
27209;SDS011;14721;42.668;23.386;2023-04-03T00:54:59;4.87;;;1.23;;
27209;SDS011;14721;42.668;23.386;2023-04-03T00:57:38;2.00;;;1.13;;
27209;SDS011;14721;42.668;23.386;2023-04-03T01:00:07;3.57;;;1.43;;
27209;SDS011;14721;42.668;23.386;2023-04-03T01:02:39;2.10;;;1.20;;
27209;SDS011;14721;42.668;23.386;2023-04-03T01:05:08;2.40;;;1.53;;
27209;SDS011;14721;42.668;23.386;2023-04-03T01:07:34;2.73;;;1.53;;
27209;SDS011;14721;42.668;23.386;2023-04-03T01:10:06;2.53;;;1.40;;
27209;SDS011;14721;42.668;23.386;2023-04-03T01:12:43;3.33;;;1.43;;
27209;SDS011;14721;42.668;23.386;2023-04-03T01:15:15;3.80;;;1.50;;
27209;SDS011;14721;42.668;23.386;2023-04-03T01:17:49;3.20;;;1.67;;
27209;SDS011;14721;42.668;23.386;2023-04-03T01:25:47;3.63;;;1.83;;
27209;SDS011;14721;42.668;23.386;2023-04-03T01:28:16;8.83;;;2.30;;
27209;SDS011;14721;42.668;23.386;2023-04-03T01:33:53;8.13;;;3.20;;
27209;SDS011;14721;42.668;23.386;2023-04-03T01:36:24;9.70;;;4.63;;
27209;SDS011;14721;42.668;23.386;2023-04-03T01:38:55;15.57;;;5.70;;
27209;SDS011;14721;42.668;23.386;2023-04-03T01:41:27;11.83;;;5.50;;
27209;SDS011;14721;42.668;23.386;2023-04-03T01:43:56;11.83;;;5.50;;
27209;SDS011;14721;42.668;23.386;2023-04-03T01:46:34;9.97;;;4.63;;
27209;SDS011;14721;42.668;23.386;2023-04-03T01:49:03;9.93;;;4.37;;
27209;SDS011;14721;42.668;23.386;2023-04-03T01:51:29;12.70;;;4.53;;
27209;SDS011;14721;42.668;23.386;2023-04-03T01:53:59;12.83;;;4.93;;
27209;SDS011;14721;42.668;23.386;2023-04-03T01:56:31;9.80;;;5.20;;
27209;SDS011;14721;42.668;23.386;2023-04-03T01:58:57;9.00;;;4.53;;
27209;SDS011;14721;42.668;23.386;2023-04-03T02:01:25;14.40;;;6.20;;
27209;SDS011;14721;42.668;23.386;2023-04-03T02:03:51;11.77;;;4.20;;
27209;SDS011;14721;42.668;23.386;2023-04-03T02:06:20;13.70;;;5.50;;
27209;SDS011;14721;42.668;23.386;2023-04-03T02:08:48;9.33;;;4.80;;
27209;SDS011;14721;42.668;23.386;2023-04-03T02:11:23;11.37;;;4.77;;
27209;SDS011;14721;42.668;23.386;2023-04-03T02:14:00;9.20;;;4.70;;
27209;SDS011;14721;42.668;23.386;2023-04-03T02:16:29;9.23;;;4.00;;
27209;SDS011;14721;42.668;23.386;2023-04-03T02:19:07;10.73;;;3.97;;
27209;SDS011;14721;42.668;23.386;2023-04-03T02:21:32;12.07;;;4.90;;
27209;SDS011;14721;42.668;23.386;2023-04-03T02:23:58;7.17;;;3.73;;
27209;SDS011;14721;42.668;23.386;2023-04-03T02:26:42;10.30;;;4.33;;
27209;SDS011;14721;42.668;23.386;2023-04-03T02:31:59;8.67;;;4.73;;
27209;SDS011;14721;42.668;23.386;2023-04-03T02:34:29;13.03;;;5.20;;
27209;SDS011;14721;42.668;23.386;2023-04-03T02:37:01;11.87;;;4.50;;
27209;SDS011;14721;42.668;23.386;2023-04-03T02:39:29;9.03;;;4.73;;
27209;SDS011;14721;42.668;23.386;2023-04-03T02:42:00;9.07;;;3.37;;
27209;SDS011;14721;42.668;23.386;2023-04-03T02:44:35;8.70;;;3.70;;
27209;SDS011;14721;42.668;23.386;2023-04-03T02:47:01;6.47;;;2.60;;
27209;SDS011;14721;42.668;23.386;2023-04-03T02:49:31;2.53;;;1.47;;
27209;SDS011;14721;42.668;23.386;2023-04-03T02:52:00;3.50;;;2.03;;
27209;SDS011;14721;42.668;23.386;2023-04-03T02:54:25;3.13;;;1.77;;
27209;SDS011;14721;42.668;23.386;2023-04-03T02:56:55;3.03;;;1.37;;
27209;SDS011;14721;42.668;23.386;2023-04-03T02:59:23;5.97;;;1.53;;
27209;SDS011;14721;42.668;23.386;2023-04-03T03:01:49;3.00;;;1.50;;
27209;SDS011;14721;42.668;23.386;2023-04-03T03:04:23;3.00;;;1.57;;
27209;SDS011;14721;42.668;23.386;2023-04-03T03:06:53;5.27;;;1.57;;
27209;SDS011;14721;42.668;23.386;2023-04-03T03:09:18;5.17;;;1.63;;
27209;SDS011;14721;42.668;23.386;2023-04-03T03:11:47;2.53;;;1.43;;
27209;SDS011;14721;42.668;23.386;2023-04-03T03:14:12;7.13;;;1.87;;
27209;SDS011;14721;42.668;23.386;2023-04-03T03:16:38;2.10;;;1.33;;
27209;SDS011;14721;42.668;23.386;2023-04-03T03:19:06;6.17;;;1.83;;
27209;SDS011;14721;42.668;23.386;2023-04-03T03:21:35;3.47;;;1.90;;
27209;SDS011;14721;42.668;23.386;2023-04-03T03:24:03;6.90;;;1.90;;
27209;SDS011;14721;42.668;23.386;2023-04-03T03:26:32;2.57;;;1.63;;
27209;SDS011;14721;42.668;23.386;2023-04-03T03:29:08;2.23;;;1.60;;
27209;SDS011;14721;42.668;23.386;2023-04-03T03:31:34;3.37;;;1.80;;
27209;SDS011;14721;42.668;23.386;2023-04-03T03:34:03;5.07;;;1.67;;
27209;SDS011;14721;42.668;23.386;2023-04-03T03:36:34;2.97;;;1.40;;
27209;SDS011;14721;42.668;23.386;2023-04-03T03:39:05;3.40;;;1.23;;
27209;SDS011;14721;42.668;23.386;2023-04-03T03:41:33;3.50;;;1.80;;
27209;SDS011;14721;42.668;23.386;2023-04-03T03:44:16;2.40;;;1.80;;
27209;SDS011;14721;42.668;23.386;2023-04-03T03:46:54;4.63;;;1.50;;
27209;SDS011;14721;42.668;23.386;2023-04-03T03:49:23;3.00;;;1.47;;
27209;SDS011;14721;42.668;23.386;2023-04-03T03:51:49;5.70;;;2.30;;
27209;SDS011;14721;42.668;23.386;2023-04-03T03:54:17;2.57;;;1.30;;
27209;SDS011;14721;42.668;23.386;2023-04-03T03:56:49;5.20;;;1.83;;
27209;SDS011;14721;42.668;23.386;2023-04-03T03:59:17;3.97;;;2.00;;
27209;SDS011;14721;42.668;23.386;2023-04-03T04:01:43;5.27;;;1.80;;
27209;SDS011;14721;42.668;23.386;2023-04-03T04:04:09;5.80;;;2.23;;
27209;SDS011;14721;42.668;23.386;2023-04-03T04:06:34;3.27;;;1.90;;
27209;SDS011;14721;42.668;23.386;2023-04-03T04:09:00;5.47;;;2.10;;
27209;SDS011;14721;42.668;23.386;2023-04-03T04:11:25;7.00;;;2.27;;
27209;SDS011;14721;42.668;23.386;2023-04-03T04:13:52;5.43;;;2.00;;
27209;SDS011;14721;42.668;23.386;2023-04-03T04:16:17;7.53;;;1.80;;
27209;SDS011;14721;42.668;23.386;2023-04-03T04:18:43;3.80;;;1.60;;
27209;SDS011;14721;42.668;23.386;2023-04-03T04:21:08;5.33;;;1.63;;
27209;SDS011;14721;42.668;23.386;2023-04-03T04:23:36;4.60;;;1.60;;
27209;SDS011;14721;42.668;23.386;2023-04-03T04:26:02;3.10;;;1.47;;
27209;SDS011;14721;42.668;23.386;2023-04-03T04:28:27;3.67;;;1.43;;
27209;SDS011;14721;42.668;23.386;2023-04-03T04:30:56;4.40;;;1.77;;
27209;SDS011;14721;42.668;23.386;2023-04-03T04:33:22;5.40;;;1.53;;
27209;SDS011;14721;42.668;23.386;2023-04-03T04:35:50;2.97;;;1.60;;
27209;SDS011;14721;42.668;23.386;2023-04-03T04:38:17;5.30;;;1.70;;
27209;SDS011;14721;42.668;23.386;2023-04-03T04:40:46;4.10;;;2.03;;
27209;SDS011;14721;42.668;23.386;2023-04-03T04:43:13;3.70;;;1.83;;
27209;SDS011;14721;42.668;23.386;2023-04-03T04:45:40;5.73;;;2.00;;
27209;SDS011;14721;42.668;23.386;2023-04-03T04:48:06;3.37;;;1.63;;
27209;SDS011;14721;42.668;23.386;2023-04-03T04:50:31;6.80;;;1.83;;
27209;SDS011;14721;42.668;23.386;2023-04-03T04:52:57;5.00;;;2.13;;
27209;SDS011;14721;42.668;23.386;2023-04-03T04:55:22;4.13;;;1.50;;
27209;SDS011;14721;42.668;23.386;2023-04-03T04:57:48;8.43;;;2.70;;
27209;SDS011;14721;42.668;23.386;2023-04-03T05:00:14;5.93;;;2.20;;
27209;SDS011;14721;42.668;23.386;2023-04-03T05:02:47;4.57;;;2.13;;
27209;SDS011;14721;42.668;23.386;2023-04-03T05:05:23;11.07;;;2.73;;
27209;SDS011;14721;42.668;23.386;2023-04-03T05:07:54;5.20;;;2.20;;
27209;SDS011;14721;42.668;23.386;2023-04-03T05:10:30;4.77;;;2.60;;
27209;SDS011;14721;42.668;23.386;2023-04-03T05:12:57;7.83;;;2.30;;
27209;SDS011;14721;42.668;23.386;2023-04-03T05:15:24;8.07;;;2.50;;
27209;SDS011;14721;42.668;23.386;2023-04-03T05:17:49;6.07;;;2.27;;
27209;SDS011;14721;42.668;23.386;2023-04-03T05:20:16;7.00;;;2.17;;
27209;SDS011;14721;42.668;23.386;2023-04-03T05:22:42;4.77;;;1.80;;
27209;SDS011;14721;42.668;23.386;2023-04-03T05:25:07;6.43;;;1.80;;
27209;SDS011;14721;42.668;23.386;2023-04-03T05:27:39;4.70;;;1.87;;
27209;SDS011;14721;42.668;23.386;2023-04-03T05:30:11;6.33;;;2.00;;
27209;SDS011;14721;42.668;23.386;2023-04-03T05:32:42;6.17;;;3.30;;
27209;SDS011;14721;42.668;23.386;2023-04-03T05:35:10;6.30;;;1.97;;
27209;SDS011;14721;42.668;23.386;2023-04-03T05:37:37;4.97;;;2.30;;
27209;SDS011;14721;42.668;23.386;2023-04-03T05:40:04;6.60;;;2.00;;
27209;SDS011;14721;42.668;23.386;2023-04-03T05:42:31;4.03;;;1.90;;
27209;SDS011;14721;42.668;23.386;2023-04-03T05:44:57;6.40;;;2.93;;
27209;SDS011;14721;42.668;23.386;2023-04-03T05:47:25;6.73;;;2.70;;
27209;SDS011;14721;42.668;23.386;2023-04-03T05:50:01;13.83;;;3.73;;
27209;SDS011;14721;42.668;23.386;2023-04-03T05:52:29;8.27;;;4.13;;
27209;SDS011;14721;42.668;23.386;2023-04-03T05:54:56;11.07;;;4.93;;
27209;SDS011;14721;42.668;23.386;2023-04-03T05:57:26;31.50;;;8.23;;
27209;SDS011;14721;42.668;23.386;2023-04-03T05:59:54;26.63;;;13.67;;
27209;SDS011;14721;42.668;23.386;2023-04-03T06:02:21;44.10;;;17.83;;
27209;SDS011;14721;42.668;23.386;2023-04-03T06:04:49;46.23;;;20.10;;
27209;SDS011;14721;42.668;23.386;2023-04-03T06:07:16;44.97;;;23.00;;
27209;SDS011;14721;42.668;23.386;2023-04-03T06:09:46;53.77;;;28.87;;
27209;SDS011;14721;42.668;23.386;2023-04-03T06:12:13;42.93;;;25.40;;
27209;SDS011;14721;42.668;23.386;2023-04-03T06:14:39;42.00;;;22.23;;
27209;SDS011;14721;42.668;23.386;2023-04-03T06:17:06;42.20;;;24.70;;
27209;SDS011;14721;42.668;23.386;2023-04-03T06:19:34;37.90;;;21.60;;
27209;SDS011;14721;42.668;23.386;2023-04-03T06:22:03;46.23;;;27.63;;
27209;SDS011;14721;42.668;23.386;2023-04-03T06:24:28;48.90;;;27.37;;
27209;SDS011;14721;42.668;23.386;2023-04-03T06:27:07;33.57;;;19.53;;
27209;SDS011;14721;42.668;23.386;2023-04-03T06:29:44;28.73;;;13.17;;
27209;SDS011;14721;42.668;23.386;2023-04-03T06:32:11;22.33;;;11.80;;
27209;SDS011;14721;42.668;23.386;2023-04-03T06:34:39;32.90;;;10.17;;
27209;SDS011;14721;42.668;23.386;2023-04-03T06:37:21;21.90;;;9.37;;
27209;SDS011;14721;42.668;23.386;2023-04-03T07:52:38;17.50;;;9.07;;
27209;SDS011;14721;42.668;23.386;2023-04-03T07:55:04;18.47;;;8.63;;
27209;SDS011;14721;42.668;23.386;2023-04-03T07:57:29;17.50;;;8.60;;
27209;SDS011;14721;42.668;23.386;2023-04-03T07:59:55;22.13;;;9.27;;
27209;SDS011;14721;42.668;23.386;2023-04-03T08:02:20;16.30;;;9.00;;
27209;SDS011;14721;42.668;23.386;2023-04-03T08:04:46;20.40;;;8.87;;
27209;SDS011;14721;42.668;23.386;2023-04-03T08:07:11;16.73;;;9.07;;
27209;SDS011;14721;42.668;23.386;2023-04-03T08:09:37;17.00;;;8.87;;
27209;SDS011;14721;42.668;23.386;2023-04-03T08:12:02;20.30;;;10.10;;
27209;SDS011;14721;42.668;23.386;2023-04-03T08:14:29;21.07;;;9.97;;
27209;SDS011;14721;42.668;23.386;2023-04-03T08:16:56;17.57;;;10.50;;
27209;SDS011;14721;42.668;23.386;2023-04-03T08:19:21;22.30;;;10.33;;
27209;SDS011;14721;42.668;23.386;2023-04-03T08:21:47;22.57;;;9.00;;
27209;SDS011;14721;42.668;23.386;2023-04-03T08:24:12;13.30;;;9.03;;
27209;SDS011;14721;42.668;23.386;2023-04-03T08:26:38;17.03;;;8.40;;
27209;SDS011;14721;42.668;23.386;2023-04-03T08:29:03;25.33;;;10.20;;
27209;SDS011;14721;42.668;23.386;2023-04-03T08:31:29;22.97;;;10.30;;
27209;SDS011;14721;42.668;23.386;2023-04-03T08:33:56;19.80;;;9.70;;
27209;SDS011;14721;42.668;23.386;2023-04-03T08:36:23;27.37;;;10.93;;
27209;SDS011;14721;42.668;23.386;2023-04-03T08:38:52;22.17;;;10.57;;
27209;SDS011;14721;42.668;23.386;2023-04-03T08:46:35;19.40;;;10.27;;
27209;SDS011;14721;42.668;23.386;2023-04-03T08:49:01;21.37;;;9.73;;
27209;SDS011;14721;42.668;23.386;2023-04-03T08:51:26;28.37;;;8.90;;
27209;SDS011;14721;42.668;23.386;2023-04-03T08:53:59;16.17;;;9.83;;
27209;SDS011;14721;42.668;23.386;2023-04-03T08:56:33;31.30;;;10.60;;
27209;SDS011;14721;42.668;23.386;2023-04-03T08:59:01;24.27;;;10.47;;
27209;SDS011;14721;42.668;23.386;2023-04-03T09:01:40;21.50;;;10.53;;
27209;SDS011;14721;42.668;23.386;2023-04-03T09:04:14;19.97;;;10.47;;
27209;SDS011;14721;42.668;23.386;2023-04-03T09:06:42;25.60;;;9.37;;
27209;SDS011;14721;42.668;23.386;2023-04-03T09:09:15;23.63;;;10.63;;
27209;SDS011;14721;42.668;23.386;2023-04-03T09:20:13;18.17;;;8.13;;
27209;SDS011;14721;42.668;23.386;2023-04-03T09:22:46;23.37;;;9.27;;
27209;SDS011;14721;42.668;23.386;2023-04-03T09:27:51;15.47;;;8.43;;
27209;SDS011;14721;42.668;23.386;2023-04-03T09:30:23;19.23;;;8.80;;
27209;SDS011;14721;42.668;23.386;2023-04-03T09:32:51;19.40;;;9.17;;
27209;SDS011;14721;42.668;23.386;2023-04-03T09:40:35;13.90;;;7.30;;
27209;SDS011;14721;42.668;23.386;2023-04-03T09:45:56;13.43;;;5.83;;
27209;SDS011;14721;42.668;23.386;2023-04-03T09:48:49;14.88;;;6.03;;
27209;SDS011;14721;42.668;23.386;2023-04-03T09:51:16;12.53;;;5.40;;
27209;SDS011;14721;42.668;23.386;2023-04-03T09:53:42;15.63;;;5.53;;
27209;SDS011;14721;42.668;23.386;2023-04-03T09:58:40;11.97;;;5.90;;
27209;SDS011;14721;42.668;23.386;2023-04-03T10:01:56;12.07;;;6.37;;
27209;SDS011;14721;42.668;23.386;2023-04-03T10:04:13;17.80;;;6.83;;
27209;SDS011;14721;42.668;23.386;2023-04-03T10:06:47;12.47;;;6.63;;
27209;SDS011;14721;42.668;23.386;2023-04-03T10:14:53;15.33;;;6.80;;
27209;SDS011;14721;42.668;23.386;2023-04-03T10:28:48;11.20;;;5.50;;
27209;SDS011;14721;42.668;23.386;2023-04-03T10:39:39;9.50;;;5.20;;
27209;SDS011;14721;42.668;23.386;2023-04-03T10:56:17;6.53;;;2.90;;
27209;SDS011;14721;42.668;23.386;2023-04-03T10:58:46;5.77;;;2.77;;
27209;SDS011;14721;42.668;23.386;2023-04-03T11:01:36;5.63;;;2.83;;
27209;SDS011;14721;42.668;23.386;2023-04-03T11:04:06;7.23;;;2.83;;
27209;SDS011;14721;42.668;23.386;2023-04-03T11:06:37;6.00;;;2.33;;
27209;SDS011;14721;42.668;23.386;2023-04-03T11:09:11;3.97;;;1.80;;
27209;SDS011;14721;42.668;23.386;2023-04-03T11:11:44;6.03;;;2.20;;
27209;SDS011;14721;42.668;23.386;2023-04-03T11:14:29;4.90;;;2.20;;
27209;SDS011;14721;42.668;23.386;2023-04-03T11:25:34;5.20;;;2.37;;
27209;SDS011;14721;42.668;23.386;2023-04-03T11:28:04;5.07;;;2.57;;
27209;SDS011;14721;42.668;23.386;2023-04-03T11:36:08;3.20;;;2.00;;
27209;SDS011;14721;42.668;23.386;2023-04-03T11:38:44;6.30;;;2.63;;
27209;SDS011;14721;42.668;23.386;2023-04-03T11:41:12;6.07;;;2.47;;
27209;SDS011;14721;42.668;23.386;2023-04-03T11:43:55;5.30;;;2.87;;
27209;SDS011;14721;42.668;23.386;2023-04-03T11:46:22;5.27;;;2.70;;
27209;SDS011;14721;42.668;23.386;2023-04-03T11:48:48;3.90;;;2.70;;
27209;SDS011;14721;42.668;23.386;2023-04-03T11:53:45;4.67;;;3.27;;
27209;SDS011;14721;42.668;23.386;2023-04-03T11:59:31;8.50;;;3.23;;
27209;SDS011;14721;42.668;23.386;2023-04-03T12:04:23;6.60;;;3.40;;
27209;SDS011;14721;42.668;23.386;2023-04-03T12:06:51;6.03;;;2.60;;
27209;SDS011;14721;42.668;23.386;2023-04-03T12:09:34;2.30;;;1.53;;
27209;SDS011;14721;42.668;23.386;2023-04-03T12:15:18;3.00;;;1.97;;
27209;SDS011;14721;42.668;23.386;2023-04-03T12:17:50;4.13;;;2.43;;
27209;SDS011;14721;42.668;23.386;2023-04-03T12:26:00;3.60;;;2.50;;
27209;SDS011;14721;42.668;23.386;2023-04-03T12:28:35;6.30;;;2.83;;
27209;SDS011;14721;42.668;23.386;2023-04-03T12:31:03;4.53;;;2.80;;
27209;SDS011;14721;42.668;23.386;2023-04-03T12:33:44;4.60;;;3.23;;
27209;SDS011;14721;42.668;23.386;2023-04-03T12:36:48;7.37;;;3.50;;
27209;SDS011;14721;42.668;23.386;2023-04-03T12:39:41;7.70;;;3.17;;
27209;SDS011;14721;42.668;23.386;2023-04-03T12:45:26;7.80;;;3.97;;
27209;SDS011;14721;42.668;23.386;2023-04-03T12:47:53;9.10;;;4.60;;
27209;SDS011;14721;42.668;23.386;2023-04-03T12:50:21;11.20;;;5.10;;
27209;SDS011;14721;42.668;23.386;2023-04-03T12:53:32;12.37;;;5.83;;
27209;SDS011;14721;42.668;23.386;2023-04-03T12:55:40;20.47;;;6.50;;
27209;SDS011;14721;42.668;23.386;2023-04-03T12:58:25;15.50;;;6.27;;
27209;SDS011;14721;42.668;23.386;2023-04-03T13:00:59;9.80;;;5.13;;
27209;SDS011;14721;42.668;23.386;2023-04-03T13:03:27;6.93;;;4.43;;
27209;SDS011;14721;42.668;23.386;2023-04-03T13:05:57;8.97;;;5.47;;
27209;SDS011;14721;42.668;23.386;2023-04-03T13:08:27;7.60;;;4.97;;
27209;SDS011;14721;42.668;23.386;2023-04-03T13:13:37;8.57;;;4.97;;
27209;SDS011;14721;42.668;23.386;2023-04-03T13:16:10;8.63;;;5.40;;
27209;SDS011;14721;42.668;23.386;2023-04-03T13:18:39;10.00;;;6.20;;
27209;SDS011;14721;42.668;23.386;2023-04-03T13:21:17;8.50;;;5.90;;
27209;SDS011;14721;42.668;23.386;2023-04-03T13:23:46;10.03;;;6.00;;
27209;SDS011;14721;42.668;23.386;2023-04-03T13:26:15;11.87;;;6.57;;
27209;SDS011;14721;42.668;23.386;2023-04-03T13:28:42;7.53;;;5.20;;
27209;SDS011;14721;42.668;23.386;2023-04-03T13:33:39;12.90;;;7.50;;
27209;SDS011;14721;42.668;23.386;2023-04-03T13:36:18;9.67;;;5.63;;
27209;SDS011;14721;42.668;23.386;2023-04-03T13:38:57;9.30;;;5.90;;
27209;SDS011;14721;42.668;23.386;2023-04-03T13:41:25;9.03;;;5.87;;
27209;SDS011;14721;42.668;23.386;2023-04-03T13:43:55;12.03;;;6.17;;
27209;SDS011;14721;42.668;23.386;2023-04-03T13:46:22;10.40;;;4.83;;
27209;SDS011;14721;42.668;23.386;2023-04-03T13:48:54;13.60;;;5.93;;
27209;SDS011;14721;42.668;23.386;2023-04-03T13:51:22;9.30;;;6.03;;
27209;SDS011;14721;42.668;23.386;2023-04-03T13:53:55;7.90;;;5.40;;
27209;SDS011;14721;42.668;23.386;2023-04-03T14:01:38;9.77;;;7.30;;
27209;SDS011;14721;42.668;23.386;2023-04-03T14:04:18;9.77;;;7.00;;
27209;SDS011;14721;42.668;23.386;2023-04-03T14:06:48;9.67;;;6.47;;
27209;SDS011;14721;42.668;23.386;2023-04-03T14:09:15;9.57;;;6.03;;
27209;SDS011;14721;42.668;23.386;2023-04-03T14:11:41;12.07;;;6.83;;
27209;SDS011;14721;42.668;23.386;2023-04-03T14:14:15;11.60;;;7.03;;
27209;SDS011;14721;42.668;23.386;2023-04-03T14:16:48;8.07;;;5.30;;
27209;SDS011;14721;42.668;23.386;2023-04-03T14:19:19;5.13;;;4.13;;
27209;SDS011;14721;42.668;23.386;2023-04-03T14:21:48;8.70;;;4.63;;
27209;SDS011;14721;42.668;23.386;2023-04-03T14:24:15;9.70;;;5.10;;
27209;SDS011;14721;42.668;23.386;2023-04-03T14:26:42;7.80;;;4.40;;
27209;SDS011;14721;42.668;23.386;2023-04-03T14:29:09;8.20;;;4.67;;
27209;SDS011;14721;42.668;23.386;2023-04-03T14:31:35;8.43;;;5.33;;
27209;SDS011;14721;42.668;23.386;2023-04-03T14:34:01;9.43;;;5.30;;
27209;SDS011;14721;42.668;23.386;2023-04-03T14:36:27;8.70;;;5.13;;
27209;SDS011;14721;42.668;23.386;2023-04-03T14:38:54;8.43;;;5.00;;
27209;SDS011;14721;42.668;23.386;2023-04-03T14:41:22;8.13;;;5.33;;
27209;SDS011;14721;42.668;23.386;2023-04-03T14:43:50;7.40;;;4.43;;
27209;SDS011;14721;42.668;23.386;2023-04-03T14:48:53;7.00;;;4.40;;
27209;SDS011;14721;42.668;23.386;2023-04-03T14:51:19;5.33;;;3.47;;
27209;SDS011;14721;42.668;23.386;2023-04-03T14:53:44;5.93;;;3.77;;
27209;SDS011;14721;42.668;23.386;2023-04-03T14:56:21;5.67;;;3.30;;
27209;SDS011;14721;42.668;23.386;2023-04-03T14:58:51;5.70;;;3.23;;
27209;SDS011;14721;42.668;23.386;2023-04-03T15:01:21;6.67;;;3.70;;
27209;SDS011;14721;42.668;23.386;2023-04-03T15:03:47;4.97;;;3.30;;
27209;SDS011;14721;42.668;23.386;2023-04-03T15:06:13;6.77;;;3.33;;
27209;SDS011;14721;42.668;23.386;2023-04-03T15:08:40;3.73;;;2.93;;
27209;SDS011;14721;42.668;23.386;2023-04-03T15:11:07;5.67;;;3.17;;
27209;SDS011;14721;42.668;23.386;2023-04-03T15:13:34;4.33;;;2.80;;
27209;SDS011;14721;42.668;23.386;2023-04-03T15:16:00;5.50;;;3.53;;
27209;SDS011;14721;42.668;23.386;2023-04-03T15:18:26;6.60;;;3.60;;
27209;SDS011;14721;42.668;23.386;2023-04-03T15:20:55;5.80;;;3.87;;
27209;SDS011;14721;42.668;23.386;2023-04-03T15:23:20;6.53;;;3.67;;
27209;SDS011;14721;42.668;23.386;2023-04-03T15:25:51;5.63;;;3.63;;
27209;SDS011;14721;42.668;23.386;2023-04-03T15:28:19;7.17;;;3.30;;
27209;SDS011;14721;42.668;23.386;2023-04-03T15:30:51;5.33;;;3.27;;
27209;SDS011;14721;42.668;23.386;2023-04-03T15:33:17;5.30;;;3.17;;
27209;SDS011;14721;42.668;23.386;2023-04-03T15:35:43;4.30;;;3.27;;
27209;SDS011;14721;42.668;23.386;2023-04-03T15:38:08;6.33;;;3.37;;
27209;SDS011;14721;42.668;23.386;2023-04-03T15:40:34;5.40;;;3.60;;
27209;SDS011;14721;42.668;23.386;2023-04-03T15:43:00;9.10;;;4.37;;
27209;SDS011;14721;42.668;23.386;2023-04-03T15:45:28;9.90;;;4.83;;
27209;SDS011;14721;42.668;23.386;2023-04-03T15:47:55;7.10;;;4.57;;
27209;SDS011;14721;42.668;23.386;2023-04-03T15:50:21;6.80;;;4.67;;
27209;SDS011;14721;42.668;23.386;2023-04-03T15:52:49;10.50;;;5.60;;
27209;SDS011;14721;42.668;23.386;2023-04-03T15:55:19;7.50;;;5.40;;
27209;SDS011;14721;42.668;23.386;2023-04-03T15:57:46;12.80;;;6.87;;
27209;SDS011;14721;42.668;23.386;2023-04-03T16:00:11;12.67;;;6.63;;
27209;SDS011;14721;42.668;23.386;2023-04-03T16:02:37;17.73;;;8.60;;
27209;SDS011;14721;42.668;23.386;2023-04-03T16:05:03;11.50;;;7.43;;
27209;SDS011;14721;42.668;23.386;2023-04-03T16:07:29;11.83;;;6.30;;
27209;SDS011;14721;42.668;23.386;2023-04-03T16:09:55;12.67;;;5.83;;
27209;SDS011;14721;42.668;23.386;2023-04-03T16:12:21;11.33;;;5.90;;
27209;SDS011;14721;42.668;23.386;2023-04-03T16:14:46;8.90;;;4.77;;
27209;SDS011;14721;42.668;23.386;2023-04-03T16:17:12;7.77;;;4.67;;
27209;SDS011;14721;42.668;23.386;2023-04-03T16:19:37;6.43;;;4.20;;
27209;SDS011;14721;42.668;23.386;2023-04-03T16:22:03;7.73;;;4.50;;
27209;SDS011;14721;42.668;23.386;2023-04-03T16:24:29;6.67;;;4.60;;
27209;SDS011;14721;42.668;23.386;2023-04-03T16:26:54;13.07;;;5.17;;
27209;SDS011;14721;42.668;23.386;2023-04-03T16:29:20;8.30;;;5.07;;
27209;SDS011;14721;42.668;23.386;2023-04-03T16:31:46;8.00;;;5.27;;
27209;SDS011;14721;42.668;23.386;2023-04-03T16:34:12;9.73;;;5.67;;
27209;SDS011;14721;42.668;23.386;2023-04-03T16:36:37;9.27;;;6.03;;
27209;SDS011;14721;42.668;23.386;2023-04-03T16:39:03;11.97;;;6.40;;
27209;SDS011;14721;42.668;23.386;2023-04-03T16:41:28;12.20;;;6.27;;
27209;SDS011;14721;42.668;23.386;2023-04-03T16:43:54;10.43;;;6.57;;
27209;SDS011;14721;42.668;23.386;2023-04-03T16:46:20;8.33;;;5.80;;
27209;SDS011;14721;42.668;23.386;2023-04-03T16:48:46;13.23;;;6.63;;
27209;SDS011;14721;42.668;23.386;2023-04-03T16:51:12;11.47;;;6.77;;
27209;SDS011;14721;42.668;23.386;2023-04-03T16:53:38;11.07;;;6.37;;
27209;SDS011;14721;42.668;23.386;2023-04-03T16:56:03;12.90;;;5.97;;
27209;SDS011;14721;42.668;23.386;2023-04-03T16:58:29;8.73;;;5.57;;
27209;SDS011;14721;42.668;23.386;2023-04-03T17:00:55;8.23;;;5.53;;
27209;SDS011;14721;42.668;23.386;2023-04-03T17:03:20;7.17;;;5.20;;
27209;SDS011;14721;42.668;23.386;2023-04-03T17:05:48;9.30;;;4.80;;
27209;SDS011;14721;42.668;23.386;2023-04-03T17:08:13;9.90;;;5.70;;
27209;SDS011;14721;42.668;23.386;2023-04-03T17:10:39;10.27;;;5.57;;
27209;SDS011;14721;42.668;23.386;2023-04-03T17:13:05;12.83;;;6.97;;
27209;SDS011;14721;42.668;23.386;2023-04-03T17:15:30;20.07;;;12.23;;
27209;SDS011;14721;42.668;23.386;2023-04-03T17:17:55;26.30;;;15.80;;
27209;SDS011;14721;42.668;23.386;2023-04-03T17:20:21;19.53;;;12.20;;
27209;SDS011;14721;42.668;23.386;2023-04-03T17:22:46;18.47;;;11.00;;
27209;SDS011;14721;42.668;23.386;2023-04-03T17:25:12;14.43;;;7.33;;
27209;SDS011;14721;42.668;23.386;2023-04-03T17:27:39;8.50;;;5.10;;
27209;SDS011;14721;42.668;23.386;2023-04-03T17:30:05;9.37;;;5.43;;
27209;SDS011;14721;42.668;23.386;2023-04-03T17:32:31;9.83;;;5.17;;
27209;SDS011;14721;42.668;23.386;2023-04-03T17:34:57;9.20;;;4.80;;
27209;SDS011;14721;42.668;23.386;2023-04-03T17:37:22;7.77;;;4.03;;
27209;SDS011;14721;42.668;23.386;2023-04-03T17:39:48;7.03;;;4.17;;
27209;SDS011;14721;42.668;23.386;2023-04-03T17:42:13;6.07;;;3.70;;
27209;SDS011;14721;42.668;23.386;2023-04-03T17:44:40;7.30;;;4.33;;
27209;SDS011;14721;42.668;23.386;2023-04-03T17:47:05;6.23;;;4.07;;
27209;SDS011;14721;42.668;23.386;2023-04-03T17:49:31;6.73;;;4.17;;
27209;SDS011;14721;42.668;23.386;2023-04-03T17:51:57;8.33;;;3.73;;
27209;SDS011;14721;42.668;23.386;2023-04-03T17:54:22;9.33;;;3.30;;
27209;SDS011;14721;42.668;23.386;2023-04-03T17:56:48;6.27;;;3.80;;
27209;SDS011;14721;42.668;23.386;2023-04-03T17:59:14;10.80;;;4.40;;
27209;SDS011;14721;42.668;23.386;2023-04-03T18:01:42;10.40;;;4.03;;
27209;SDS011;14721;42.668;23.386;2023-04-03T18:04:12;11.53;;;4.93;;